Impacts METAR Board
IDs:

KLAX - Los Angeles Intl, CA, US

Updated at: 2300 UTC 19 Jan 2019
Potential Impact None Slight Moderate High
Time 19/11Z 19/12Z 19/13Z 19/14Z 19/15Z 19/16Z 19/17Z 19/18Z 19/19Z 19/20Z 19/21Z 19/22Z 19/23Z
Temp53 53 54 55 57 57 62 67 71 75 75 72 68
Dewpt51 49 48 47 44 46 46 45 45 43 48 50 49
Altim30.24 30.23 30.22 30.23 30.24 30.26 30.27 30.28 30.27 30.24 30.20 30.17 30.16
VIS10 10 10 10 10 10 10 10 10 10 10 10 10
CIG-- -- -- -- -- -- -- -- -- -- -- -- --
CoverCLRCLRFEWFEWFEWFEWFEWFEWFEWFEWFEWFEWFEW
FltCatVFRVFRVFRVFRVFRVFRVFRVFRVFRVFRVFRVFRVFR
WX--------------------------
WDir1204060103050604000240260260
WSpd4 6 5 5 5 4 5 6 5 5 7 7 10
WGst-- -- -- -- -- -- -- -- -- -- -- -- --
Raw hourly METARs
KLAX 191053Z 12004KT 10SM CLR 12/11 A3024 RMK AO2 SLP240 T01170106
KLAX 191153Z 04006KT 10SM CLR 12/09 A3023 RMK AO2 SLP234 T01170094 10144 20111 58010
KLAX 191253Z 06005KT 10SM FEW200 12/09 A3022 RMK AO2 SLP232 T01220089
KLAX 191353Z 01005KT 10SM FEW200 13/08 A3023 RMK AO2 SLP234 T01280083
KLAX 191453Z 03005KT 10SM FEW200 14/07 A3024 RMK AO2 SLP239 T01390067 53005
KLAX 191553Z 05004KT 10SM FEW200 14/08 A3026 RMK AO2 SLP245 T01390078
KLAX 191653Z 06005KT 10SM FEW200 17/08 A3027 RMK AO2 SLP249 T01670078 $
KLAX 191753Z 04006KT 10SM FEW200 19/07 A3028 RMK AO2 SLP251 T01940072 10194 20111 51013 $
KLAX 191853Z VRB05KT 10SM FEW200 22/07 A3027 RMK AO2 SLP249 T02170072 $
KLAX 191953Z VRB05KT 10SM FEW200 24/06 A3024 RMK AO2 SLP238 T02390061 $
KLAX 192053Z 24007KT 10SM FEW200 24/09 A3020 RMK AO2 SLP226 T02390089 58024 $
KLAX 192153Z 26007KT 10SM FEW200 22/10 A3017 RMK AO2 SLP216 T02220100 $
KLAX 192253Z 26010KT 10SM FEW200 20/09 A3016 RMK AO2 SLP211 T02000094 $



Page loaded:  23:47 UTC  |   03:47 PM Pacific  |   04:47 PM Mountain  |   05:47 PM Central  |   06:47 PM Eastern

 

ADVISORIES

FORECASTS

FORECASTS

OBSERVATIONS

USER TOOLS

ABOUT US